• Join FlightAware (Why Join?)
  • Login
  • US Flag 
01:42PM EDT


 

Airport Tracker/Info


-or-


 

Live Flight TrackerFlight Track Log ✈ XOJ549 ✈ 30-Jun-2013 ✈ KVNY - KSRQ

Flight Track Log - Related Links

Times and Time Zones

All times are in EDT time to prevent confusion due to time zone crossing. See the XOJ549 flight status page for this flight to view local times or setup timezone preferences in your user account.

Time Position Orientation Groundspeed Altitude Reporting Facility
EDT Latitude Longitude Course Direction KTS MPH feet Rate Location/Type
09:12AM 34.1667 -118.4833 270° West 164 189 1,800  Level Southern California TRACON
09:13AM 34.1667 -118.5333 270° West 204 235 3,800 1,320 Climbing Southern California TRACON
09:14AM 34.1811 -118.5467 323° Northwest 207 238 3,900 1,200 Climbing Los Angeles Center
09:15AM 34.2394 -118.5242 18° North 216 249 5,700 2,280 Climbing Los Angeles Center
09:16AM 34.2992 -118.4728 35° Northeast 257 296 8,500 2,580 Climbing Los Angeles Center
09:17AM 34.3633 -118.4186 35° Northeast 278 320 11,000 2,280 Climbing Los Angeles Center
09:18AM 34.4361 -118.3586 34° Northeast 313 360 13,200 1,980 Climbing Los Angeles Center
09:19AM 34.5047 -118.2703 47° Northeast 362 417 15,100 1,980 Climbing Los Angeles Center
09:20AM 34.5692 -118.1672 53° Northeast 383 441 17,300 2,460 Climbing Los Angeles Center
09:21AM 34.6319 -118.0464 58° Northeast 388 447 20,100 2,580 Climbing Los Angeles Center
09:22AM 34.6469 -117.9172 82° East 391 450 22,600 2,160 Climbing Los Angeles Center
09:23AM 34.6614 -117.7869 82° East 392 451 24,600 1,920 Climbing Los Angeles Center
09:24AM 34.6756 -117.6522 83° East 405 466 26,500 1,620 Climbing Los Angeles Center
09:25AM 34.6908 -117.5142 82° East 415 478 27,900 1,320 Climbing Los Angeles Center
09:26AM 34.7056 -117.3703 83° East 432 497 29,200 1,320 Climbing Los Angeles Center
09:27AM 34.7236 -117.1919 83° East 444 511 30,700 1,380 Climbing Los Angeles Center
09:28AM 34.7389 -117.0406 83° East 451 519 32,000 1,200 Climbing Los Angeles Center
09:29AM 34.7528 -116.8864 84° East 458 527 33,200 1,080 Climbing Los Angeles Center
09:30AM 34.7683 -116.7303 83° East 465 535 34,200 900 Climbing Los Angeles Center
09:31AM 34.7839 -116.5700 83° East 474 545 35,100 1,200 Climbing Los Angeles Center
09:32AM 34.7978 -116.4103 84° East 478 550 36,700 1,680 Climbing Los Angeles Center
09:33AM 34.8056 -116.2539 86° East 472 543 38,500 1,440 Climbing Los Angeles Center
09:34AM 34.8067 -116.1050 89° East 453 521 39,700 960 Climbing Los Angeles Center
09:35AM 34.8122 -115.9547 87° East 446 513 40,500 600 Climbing Los Angeles Center
09:36AM 34.8169 -115.8036 88° East 448 516 41,000 240 Climbing Los Angeles Center
09:37AM 34.8203 -115.6506 88° East 453 521 41,000  Level Los Angeles Center
09:38AM 34.8253 -115.4714 88° East 465 535 41,000  Level Los Angeles Center
09:39AM 34.8292 -115.3175 88° East 458 527 41,000  Level Los Angeles Center
09:40AM 34.8328 -115.1658 88° East 452 520 41,000  Level Los Angeles Center
09:41AM 34.8369 -115.0156 88° East 446 513 41,000  Level Los Angeles Center
09:42AM 34.8397 -114.8653 89° East 446 513 41,000  Level Los Angeles Center
09:43AM 34.8428 -114.7142 89° East 447 514 41,000  Level Los Angeles Center
09:44AM 34.8450 -114.5611 89° East 452 520 41,000  Level Los Angeles Center
09:45AM 34.8483 -114.4075 88° East 453 521 41,000  Level Los Angeles Center
09:46AM 34.8508 -114.2158 89° East 468 539 41,000  Level Los Angeles Center
09:47AM 34.8536 -114.0569 89° East 470 541 41,000  Level Los Angeles Center
09:48AM 34.8542 -113.9075 90° East 466 536 41,000  Level Los Angeles Center
09:49AM 34.8472 -113.7508 93° East 465 535 41,000  Level Albuquerque Center
09:50AM 34.8383 -113.5933 94° East 468 539 41,000  Level Albuquerque Center
09:51AM 34.8303 -113.4361 94° East 471 542 41,000  Level Albuquerque Center
09:52AM 34.8208 -113.2797 94° East 471 542 41,000  Level Albuquerque Center
09:53AM 34.8133 -113.1253 93° East 467 537 41,000  Level Albuquerque Center
09:54AM 34.8047 -112.9717 94° East 463 533 41,000  Level Albuquerque Center
09:55AM 34.7972 -112.8183 93° East 462 532 41,000  Level Albuquerque Center
09:56AM 34.7861 -112.6356 94° East 459 528 41,000  Level Albuquerque Center
09:57AM 34.7775 -112.4822 94° East 460 529 41,000  Level Albuquerque Center
09:58AM 34.7689 -112.3286 94° East 460 529 41,000  Level Albuquerque Center
09:59AM 34.7597 -112.1744 94° East 462 532 41,000  Level Albuquerque Center
10:00AM 34.7494 -112.0114 94° East 459 528 41,000  Level Albuquerque Center
10:01AM 34.7281 -111.8567 100° East 462 532 41,000  Level Albuquerque Center
10:02AM 34.7044 -111.7050 101° East 458 527 41,000  Level Albuquerque Center
10:03AM 34.6794 -111.5522 101° East 459 528 41,000  Level Albuquerque Center
10:04AM 34.6556 -111.4006 101° East 457 526 41,000  Level Albuquerque Center
10:05AM 34.6314 -111.2478 101° East 458 527 41,000  Level Albuquerque Center
10:06AM 34.6078 -111.0933 100° East 462 532 41,000  Level Albuquerque Center
10:07AM 34.5822 -110.9386 101° East 465 535 41,000  Level Albuquerque Center
10:09AM 34.5572 -110.7861 101° East 462 532 41,000  Level Albuquerque Center
10:10AM 34.5322 -110.6331 101° East 462 532 41,000  Level Albuquerque Center
10:11AM 34.5017 -110.4503 101° East 462 532 41,000  Level Albuquerque Center
10:12AM 34.4772 -110.3089 102° East 460 529 41,000  Level Albuquerque Center
10:13AM 34.4489 -110.1419 102° East 456 525 41,000  Level Albuquerque Center
10:14AM 34.4233 -109.9961 102° East 460 529 41,000  Level Albuquerque Center
10:15AM 34.3947 -109.8269 102° East 460 529 41,000  Level Albuquerque Center
10:16AM 34.3697 -109.6822 102° East 460 529 41,000  Level Albuquerque Center
10:17AM 34.3447 -109.5369 102° East 459 528 41,000  Level Albuquerque Center
10:18AM 34.3147 -109.3681 102° East 462 532 41,000  Level Albuquerque Center
10:19AM 34.2911 -109.2375 102° East 461 531 41,000  Level Albuquerque Center
10:20AM 34.2639 -109.0867 102° East 461 531 41,000  Level Albuquerque Center
10:21AM 34.2314 -108.9058 102° East 461 531 41,000  Level Albuquerque Center
10:22AM 34.2039 -108.7586 103° East 458 527 41,000  Level Albuquerque Center
10:23AM 34.1783 -108.6117 102° East 452 520 41,000  Level Albuquerque Center
10:24AM 34.1508 -108.4633 103° East 454 522 41,000  Level Albuquerque Center
10:25AM 34.1228 -108.3156 103° East 455 524 41,000  Level Albuquerque Center
10:26AM 34.0950 -108.1681 103° East 454 522 41,000  Level Albuquerque Center
10:27AM 34.0619 -108.0058 104° East 458 527 41,000  Level Albuquerque Center
10:28AM 34.0336 -107.8550 103° East 459 528 41,000  Level Albuquerque Center
10:29AM 34.0044 -107.7075 103° East 457 526 41,000  Level Albuquerque Center
10:30AM 33.9769 -107.5586 103° East 454 522 41,000  Level Albuquerque Center
10:31AM 33.9467 -107.4097 104° East 456 525 41,000  Level Albuquerque Center
10:32AM 33.9119 -107.2314 103° East 456 525 41,000  Level Albuquerque Center
10:33AM 33.8831 -107.0822 103° East 456 525 41,000  Level Albuquerque Center
10:34AM 33.8533 -106.9311 103° East 460 529 41,000  Level Albuquerque Center
10:35AM 33.8231 -106.7797 103° East 463 533 41,000  Level Albuquerque Center
10:36AM 33.7922 -106.6286 104° East 464 534 41,000  Level Albuquerque Center
10:37AM 33.7614 -106.4769 104° East 465 535 41,000  Level Albuquerque Center
10:38AM 33.7303 -106.3253 104° East 465 535 41,000  Level Albuquerque Center
10:39AM 33.6997 -106.1750 104° East 464 534 41,000  Level Albuquerque Center
10:40AM 33.6622 -105.9939 104° East 464 534 41,000  Level Albuquerque Center
10:41AM 33.6306 -105.8447 104° East 463 533 41,000  Level Albuquerque Center
10:42AM 33.5994 -105.6936 104° East 464 534 41,000  Level Albuquerque Center
10:43AM 33.5642 -105.5333 105° East 462 532 41,000  Level Albuquerque Center
10:44AM 33.5336 -105.3842 104° East 463 533 41,000  Level Albuquerque Center
10:45AM 33.4992 -105.2225 104° East 466 536 41,000  Level Albuquerque Center
10:46AM 33.4667 -105.0739 105° East 462 532 41,000  Level Albuquerque Center
10:47AM 33.4344 -104.9269 105° East 459 528 41,000  Level Albuquerque Center
10:48AM 33.4008 -104.7697 104° East 453 521 41,000  Level Albuquerque Center
10:50AM 33.3739 -104.6425 104° East 456 525 41,000  Level Albuquerque Center
10:51AM 33.3394 -104.4908 105° East 471 542 41,000  Level Albuquerque Center
10:52AM 33.3017 -104.3178 105° East 463 533 41,000  Level Albuquerque Center
10:53AM 33.2667 -104.1578 105° East 463 533 41,000  Level Albuquerque Center
10:54AM 33.2333 -104.0111 105° East 461 531 41,000  Level Albuquerque Center
10:55AM 33.2003 -103.8631 105° East 462 532 41,000  Level Albuquerque Center
10:56AM 33.1639 -103.7031 105° East 465 535 41,000  Level Albuquerque Center
10:57AM 33.1356 -103.5731 105° East 463 533 41,000  Level Albuquerque Center
10:58AM 33.1000 -103.4250 106° East 466 536 41,000  Level Albuquerque Center
10:58AM 33.0725 -103.3081 106° East 464 534 41,000  Level Fort Worth Center
10:59AM 33.0397 -103.1597 105° East 464 534 41,000  Level Fort Worth Center
11:00AM 33.0047 -103.0114 106° East 464 534 41,000  Level Fort Worth Center
11:01AM 32.9694 -102.8656 106° East 464 534 41,000  Level Fort Worth Center
11:02AM 32.9361 -102.7175 105° East 464 534 41,000  Level Fort Worth Center
11:03AM 32.9006 -102.5719 106° East 464 534 41,000  Level Fort Worth Center
11:04AM 32.8611 -102.4089 106° East 464 534 41,000  Level Fort Worth Center
11:05AM 32.8272 -102.2611 105° East 464 534 41,000  Level Fort Worth Center
11:06AM 32.7892 -102.1133 107° East 464 534 41,000  Level Fort Worth Center
11:07AM 32.7528 -101.9681 107° East 464 534 41,000  Level Fort Worth Center
11:08AM 32.7161 -101.8231 107° East 464 534 41,000 300 Level Fort Worth Center
11:09AM 32.6794 -101.6781 107° East 469 540 41,700 720 Climbing Fort Worth Center
11:10AM 32.6444 -101.5358 106° East 458 527 42,500 720 Climbing Fort Worth Center
11:11AM 32.6094 -101.3914 106° East 458 527 43,200 600 Climbing Fort Worth Center
11:12AM 32.5758 -101.2664 108° East 452 520 43,800 600 Climbing Fort Worth Center
11:13AM 32.5383 -101.1269 108° East 446 513 44,400 600 Climbing Fort Worth Center
11:14AM 32.5047 -100.9853 106° East 446 513 45,000 300 Climbing Fort Worth Center
11:15AM 32.4692 -100.8433 107° East 446 513 45,000  Level Fort Worth Center
11:16AM 32.4333 -100.7017 107° East 446 513 45,000  Level Fort Worth Center
11:17AM 32.3953 -100.5578 107° East 446 513 45,000  Level Fort Worth Center
11:18AM 32.3569 -100.4136 107° East 446 513 45,000  Level Fort Worth Center
11:19AM 32.3186 -100.2700 107° East 446 513 45,000  Level Fort Worth Center
11:20AM 32.2761 -100.1064 107° East 458 527 45,000  Level Fort Worth Center
11:21AM 32.2375 -99.9628 108° East 458 527 45,000 -420 Level Fort Worth Center
11:22AM 32.2008 -99.8169 107° East 458 527 44,200 -900 Descending Fort Worth Center
11:23AM 32.1594 -99.6736 109° East 463 533 43,200 -600 Descending Fort Worth Center
11:24AM 32.1225 -99.5278 107° East 463 533 43,000 -120 Descending Fort Worth Center
11:25AM 32.0850 -99.3822 107° East 463 533 43,000  Level Fort Worth Center
11:26AM 32.0456 -99.2369 108° East 463 533 43,000  Level Fort Worth Center
11:27AM 32.0078 -99.0917 107° East 463 533 43,000  Level Fort Worth Center
11:28AM 31.9658 -98.9489 109° East 463 533 43,000  Level Fort Worth Center
11:29AM 31.9278 -98.8036 107° East 463 533 43,000  Level Fort Worth Center
11:30AM 31.8917 -98.6783 109° East 458 527 43,000  Level Fort Worth Center
11:31AM 31.8472 -98.5189 108° East 465 535 43,000  Level Fort Worth Center
11:32AM 31.8089 -98.3692 107° East 465 535 43,000  Level Fort Worth Center
11:33AM 31.7681 -98.2247 108° East 465 535 43,000  Level Fort Worth Center
11:34AM 31.7272 -98.0803 108° East 470 541 43,000  Level Fort Worth Center
11:35AM 31.6861 -97.9333 108° East 470 541 43,000  Level Fort Worth Center
11:36AM 31.6450 -97.7819 108° East 470 541 43,000  Level Fort Worth Center
11:37AM 31.6036 -97.6328 108° East 470 541 43,000  Level Fort Worth Center
11:38AM 31.5619 -97.4889 109° East 470 541 43,000  Level Fort Worth Center
11:39AM 31.5244 -97.3547 108° East 470 541 43,000  Level Fort Worth Center
11:40AM 31.4958 -97.2600 109° East 479 551 43,000  Level Houston Center
11:41AM 31.4528 -97.1086 108° East 482 555 43,000  Level Houston Center
11:42AM 31.4081 -96.9572 109° East 486 559 43,000  Level Houston Center
11:43AM 31.3572 -96.7814 109° East 483 556 43,000  Level Houston Center
11:44AM 31.3128 -96.6300 109° East 491 565 43,000  Level Houston Center
11:46AM 31.2572 -96.4667 108° East  Level FlightAware Approximate
11:46AM 31.2222 -96.3278 108° East 492 566 43,000  Level Houston Center
11:47AM 31.1767 -96.1781 110° East 488 562 43,000  Level Houston Center
11:48AM 31.1314 -96.0342 110° East 487 560 43,000  Level Houston Center
11:49AM 31.0867 -95.8858 109° East 492 566 43,000  Level Houston Center
11:50AM 31.0319 -95.7069 110° East 494 568 43,000  Level Houston Center
11:52AM 30.9861 -95.5589 110° East 494 568 43,000  Level Houston Center
11:53AM 30.9414 -95.4097 109° East 489 563 43,000  Level Houston Center
11:54AM 30.8953 -95.2608 110° East 488 562 43,000  Level Houston Center
11:55AM 30.8500 -95.1136 110° East 487 560 43,000  Level Houston Center
11:56AM 30.7950 -94.9369 110° East 488 562 43,000  Level Houston Center
11:57AM 30.7486 -94.7878 110° East 492 566 43,000  Level Houston Center
11:58AM 30.7006 -94.6383 110° East 496 571 43,000  Level Houston Center
11:59AM 30.6514 -94.4769 109° East 498 573 43,000  Level Houston Center
12:00PM 30.6036 -94.3278 110° East 496 571 43,000  Level Houston Center
12:01PM 30.5567 -94.1786 110° East 493 567 43,000  Level Houston Center
12:02PM 30.5100 -94.0303 110° East 491 565 43,000  Level Houston Center
12:03PM 30.4619 -93.8831 111° Southeast 490 564 43,000  Level Houston Center
12:04PM 30.4039 -93.7036 111° Southeast 497 572 43,000  Level Houston Center
12:05PM 30.3533 -93.5478 111° Southeast 498 573 43,000  Level Houston Center
12:06PM 30.3033 -93.4003 111° Southeast 495 570 43,000  Level Houston Center
12:07PM 30.2514 -93.2356 110° East 508 585 43,000  Level Houston Center
12:08PM 30.2044 -93.0931 111° Southeast 487 560 43,000  Level Houston Center
12:09PM 30.1572 -92.9500 111° Southeast 479 551 43,000  Level Houston Center
12:10PM 30.1092 -92.8075 111° Southeast 478 550 43,000  Level Houston Center
12:11PM 30.0619 -92.6633 111° Southeast 480 552 43,000  Level Houston Center
12:12PM 30.0133 -92.5172 111° Southeast 478 550 43,000  Level Houston Center
12:13PM 29.9567 -92.3506 111° Southeast 477 549 43,000  Level Houston Center
12:14PM 29.9086 -92.2069 111° Southeast 480 552 43,000  Level Houston Center
12:15PM 29.8586 -92.0617 112° Southeast 487 560 43,000  Level Houston Center
12:16PM 29.8094 -91.9144 111° Southeast 492 566 43,000  Level Houston Center
12:17PM 29.7586 -91.7661 112° Southeast 498 573 43,000  Level Houston Center
12:18PM 29.7028 -91.6050 112° Southeast 486 559 43,000  Level Houston Center
12:19PM 29.6556 -91.4681 112° Southeast 466 536 43,000  Level Houston Center
12:20PM 29.6078 -91.3264 111° Southeast 474 545 43,000  Level Houston Center
12:22PM 29.5583 -91.1858 112° Southeast 477 549 43,000  Level Houston Center
12:23PM 29.5064 -91.0172 109° East 469 540 43,000  Level Houston Center
12:24PM 29.4636 -90.8750 109° East 472 543 43,000 -60 Level Houston Center
12:25PM 29.4217 -90.7325 109° East 473 544 42,900  Descending Houston Center
12:26PM 29.3789 -90.5914 109° East 473 544 43,000  Climbing Houston Center
12:27PM 29.3364 -90.4494 109° East 472 543 43,000  Level Houston Center
12:28PM 29.2861 -90.2797 109° East 472 543 43,000 -60 Level Houston Center
12:29PM 29.2433 -90.1394 109° East 471 542 42,900  Descending Houston Center
12:30PM 29.1994 -89.9967 109° East 475 547 43,000  Climbing Houston Center
12:31PM 29.1558 -89.8539 109° East 477 549 43,000  Level Houston Center
12:32PM 29.1119 -89.7103 109° East 478 550 43,000  Level Houston Center
12:33PM 29.0600 -89.5375 109° East 481 554 43,000  Level Houston Center
12:34PM 29.0156 -89.3939 109° East 482 555 43,000 300 Level Houston Center
12:35PM 28.9728 -89.2528 109° East 475 547 43,700 720 Climbing Houston Center
12:36PM 28.9289 -89.1136 110° East 469 540 44,500 600 Climbing Houston Center
12:37PM 28.8867 -88.9769 109° East 460 529 45,000 240 Climbing Houston Center
12:38PM 28.8439 -88.8417 110° East 455 524 45,000  Level Houston Center
12:39PM 28.7936 -88.6797 109° East 452 520 45,000  Level Houston Center
12:40PM 28.7519 -88.5447 109° East 453 521 45,000  Level Houston Center
12:41PM 28.7089 -88.4128 110° East 446 513 45,000  Level Houston Center
12:42PM 28.6664 -88.2789 110° East 448 516 45,000  Level Houston Center
12:43PM 28.6247 -88.1475 110° East 443 510 45,000  Level Houston Center
12:44PM 28.5797 -88.0067 110° East 444 511 45,000 -60 Level Houston Center
12:45PM 28.5372 -87.8758 110° East 442 509 44,900  Descending Houston Center
12:46PM 28.4947 -87.7444 110° East 443 510 45,000  Climbing Houston Center
12:47PM 28.4428 -87.5856 110° East 449 517 45,000  Level Houston Center
12:48PM 28.3989 -87.4517 110° East 453 521 45,000  Level Houston Center
12:49PM 28.3561 -87.3161 110° East 457 526 45,000  Level Houston Center
12:50PM 28.3122 -87.1833 111° Southeast 452 520 45,000  Level Houston Center
12:51PM 28.2853 -87.1067 112° Southeast 454 522 45,000  Level Jacksonville Center
12:52PM 28.2417 -86.9706 110° East 454 522 45,000  Level Jacksonville Center
12:53PM 28.1978 -86.8417 111° Southeast 454 522 45,000  Level Jacksonville Center
12:54PM 28.1536 -86.7153 112° Southeast 446 513 45,000  Level Jacksonville Center
12:55PM 28.1097 -86.5747 109° East 444 511 45,000  Level Jacksonville Center
12:56PM 28.0633 -86.4486 113° Southeast 442 509 45,000  Level Jacksonville Center
12:57PM 28.0208 -86.3200 110° East 442 509 45,000  Level Jacksonville Center
12:58PM 27.9783 -86.1894 110° East 431 496 45,000  Level Jacksonville Center
12:59PM 27.9378 -86.0658 110° East 432 497 45,000  Level Jacksonville Center
01:01PM 27.8519 -85.8206 112° Southeast 438 504 45,000  Level Miami Center
01:03PM 27.7675 -85.5703 111° Southeast 440 506 45,000  Level Miami Center
01:04PM 27.7231 -85.4428 111° Southeast 434 499 45,000 -60 Level Miami Center
01:05PM 27.6822 -85.3228 111° Southeast 434 499 44,900  Descending Miami Center
01:06PM 27.6369 -85.2047 113° Southeast 429 494 45,000 -720 Climbing Miami Center
01:08PM 27.5475 -84.9456 111° Southeast 434 499 42,800 -1,260 Descending Miami Center
01:09PM 27.5067 -84.8167 110° East 439 505 41,300 -1,560 Descending Miami Center
01:10PM 27.4875 -84.6728 99° East 451 519 39,800 -1,500 Descending Miami Center
01:11PM 27.4869 -84.5278 90° East 456 525 38,300 -2,160 Descending Miami Center
01:12PM 27.4800 -84.3847 93° East 456 525 35,500 -3,060 Descending Miami Center
01:13PM 27.4772 -84.2372 91° East 463 533 32,200 -3,420 Descending Miami Center
01:14PM 27.4722 -84.0872 92° East 473 544 28,800 -3,300 Descending Miami Center
01:15PM 27.4628 -83.9417 94° East 473 544 25,600 -3,180 Descending Miami Center
01:16PM 27.4611 -83.8061 91° East 455 524 22,500 -3,000 Descending Miami Center
01:17PM 27.4547 -83.6772 93° East 430 495 19,600 -2,820 Descending Miami Center
01:18PM 27.4475 -83.5622 94° East 396 456 16,900 -2,640 Descending Miami Center
01:19PM 27.4464 -83.4500 91° East 371 427 14,400 -2,520 Descending Miami Center
01:20PM 27.4514 -83.3425 87° East 358 412 12,000 -2,400 Descending Miami Center
01:21PM 27.4539 -83.2400 88° East 340 391 9,600 -2,280 Descending Miami Center
01:22PM 27.4581 -83.1442 87° East 315 362 7,500 -2,100 Descending Miami Center
01:23PM 27.4661 -83.0511 84° East 303 349 5,400 -1,560 Descending Miami Center
01:24PM 27.4700 -82.9625 87° East 296 341 4,400 -780 Descending Miami Center
01:25PM 27.4692 -82.8853 91° East 272 313 3,900 -180 Descending Miami Center
01:26PM 27.4667 -82.8167 92° East 227 261 4,100 60 Climbing Tampa TRACON
01:27PM 27.4667 -82.7500 90° East 225 259 4,100 -660 Level Tampa TRACON
01:28PM 27.4667 -82.6667 90° East 232 267 2,800 -960 Descending Tampa TRACON
01:30PM 27.4500 -82.5833 103° East 164 189 1,300 -840 Descending Tampa TRACON
01:31PM 27.4167 -82.5667 156° South 144 166 400 -1,020 Descending Tampa TRACON
01:33PM 27.3954 -82.5544 103° East  Level Estimated
01:40PM 27.3954 -82.5544 103° East  Level Estimated
01:41PM 27.3954 -82.5544 103° East  Level Estimated